Terminal Aerodrome Forecast
Issued by NWS Knoxville/Tri Cities, TN

Home | Current Version | Previous Version | Text Only | Print | Product List | Glossary On
Versions: 1 2 3 4 5 6 7 8 9 10 11 12 13 14 15 16 17 18 19 20 21 22 23 24 25 26 27 28 29 30 31 32 33 34 35 36 37 38 39 40 41 42 43 44 45 46 47 48 49 50
000
FTUS44 KMRX 230922 AAB
TAFCHA
TAF AMD
KCHA 230922Z 2309/2406 VRB04KT P6SM VCTS BKN005 BKN010CB OVC100
      TEMPO 2309/2311 2SM TSRA BR BKN010CB OVC020
     FM231100 02005KT 3SM -SHRA BR VCTS OVC012CB
     FM231500 35005KT 4SM -SHRA BR VCTS OVC008CB
     FM232000 01006KT 4SM BR VCSH OVC006=

USA.gov is the U.S. government's official web portal to all federal, state and local government web resources and services.